Time;durP1;ratioP1;P1;durP2;ratioP2;P2;SDS_P1;SDS_P2;PMS_P1;PMS_P2;Temp;Humidity;BMP_temperature;BMP_pressure;BME280_temperature;BME280_humidity;BME280_pressure;Samples;Min_cycle;Max_cycle;Signal;HPM_P1;HPM_P2
2023/10/13 00:02:04;;;;;;;18.25;10.75;;;;;;;16.07;100.00;101160.78;6219245;23;20047;-76
2023/10/13 00:04:35;;;;;;;16.60;10.18;;;;;;;16.07;100.00;101171.50;6218835;23;20017;-76
2023/10/13 00:07:02;;;;;;;17.30;10.07;;;;;;;16.07;100.00;101166.13;6193476;23;20047;-77
2023/10/13 00:09:33;;;;;;;16.75;10.48;;;;;;;16.06;100.00;101153.91;6218808;23;20745;-77
2023/10/13 00:12:00;;;;;;;15.20;10.23;;;;;;;16.07;100.00;101144.66;6193176;23;20017;-77
2023/10/13 00:14:33;;;;;;;15.48;10.32;;;;;;;16.07;100.00;101157.34;6191627;23;20079;-77
2023/10/13 00:17:05;;;;;;;15.10;10.20;;;;;;;16.07;100.00;101149.28;6168210;23;20021;-75
2023/10/13 00:19:38;;;;;;;13.00;9.98;;;;;;;16.06;100.00;101142.44;6167846;23;20028;-77
2023/10/13 00:22:11;;;;;;;18.20;10.07;;;;;;;16.06;100.00;101139.75;6193352;23;20017;-77
2023/10/13 00:24:42;;;;;;;15.30;10.00;;;;;;;16.06;100.00;101140.50;6193056;23;20028;-77
2023/10/13 00:30:14;;;;;;;13.60;9.52;;;;;;;16.05;100.00;101138.28;6192629;23;20093;-77
2023/10/13 00:32:40;;;;;;;17.65;10.00;;;;;;;16.05;100.00;101143.63;6219345;23;20017;-77
2023/10/13 00:35:11;;;;;;;14.65;9.52;;;;;;;16.04;100.00;101134.84;6167669;23;20021;-77
2023/10/13 00:37:43;;;;;;;11.63;9.77;;;;;;;16.04;100.00;101131.41;6192678;23;20049;-77
2023/10/13 00:40:40;;;;;;;13.38;9.77;;;;;;;16.04;100.00;101129.47;6192822;23;20108;-77
2023/10/13 00:43:34;;;;;;;10.90;8.63;;;;;;;16.03;100.00;101125.31;6219556;23;20013;-77
2023/10/13 00:46:06;;;;;;;14.32;8.15;;;;;;;16.04;100.00;101120.69;6215285;23;20015;-78
2023/10/13 00:48:42;;;;;;;14.00;9.05;;;;;;;16.04;100.00;101121.41;6192707;23;20080;-78
2023/10/13 00:51:18;;;;;;;13.05;9.05;;;;;;;16.03;100.00;101119.94;6219459;23;20021;-78
2023/10/13 00:53:47;;;;;;;15.43;9.80;;;;;;;16.02;100.00;101119.19;6219761;23;20093;-78
2023/10/13 00:56:26;;;;;;;11.50;9.45;;;;;;;16.03;100.00;101114.56;6218978;23;20053;-78
2023/10/13 00:58:57;;;;;;;12.35;9.00;;;;;;;16.04;100.00;101107.25;6219179;23;20080;-78
2023/10/13 01:01:36;;;;;;;12.02;8.75;;;;;;;16.04;100.00;101102.63;6191939;23;20072;-78
2023/10/13 01:04:05;;;;;;;13.93;8.95;;;;;;;16.04;100.00;101099.94;6219777;23;20025;-78
2023/10/13 01:06:32;;;;;;;13.40;9.70;;;;;;;16.04;100.00;101099.94;6217498;23;20033;-78
2023/10/13 01:09:14;;;;;;;16.63;9.70;;;;;;;16.05;100.00;101092.63;6219480;23;20096;-78
2023/10/13 01:11:43;;;;;;;14.88;9.63;;;;;;;16.04;100.00;101088.47;6219472;23;20092;-77
2023/10/13 01:14:17;;;;;;;17.40;9.88;;;;;;;16.03;100.00;101090.41;6218480;23;20058;-77
2023/10/13 01:16:45;;;;;;;14.70;10.77;;;;;;;16.04;100.00;101091.16;6219142;23;20419;-79
2023/10/13 01:19:24;;;;;;;14.45;10.45;;;;;;;16.04;100.00;101083.81;6219135;23;20013;-78
2023/10/13 01:21:57;;;;;;;12.68;11.13;;;;;;;16.02;100.00;101078.91;6219835;23;20032;-77
2023/10/13 01:24:24;;;;;;;19.23;11.07;;;;;;;16.03;100.00;101071.59;6191931;23;20741;-77
2023/10/13 01:26:52;;;;;;;12.40;10.45;;;;;;;16.03;100.00;101071.59;6218910;23;20091;-78
2023/10/13 01:29:19;;;;;;;14.32;11.65;;;;;;;16.02;100.00;101070.88;6192212;23;20447;-78
2023/10/13 01:31:46;;;;;;;16.70;11.13;;;;;;;16.02;100.00;101059.38;6167933;23;20415;-78
2023/10/13 01:34:14;;;;;;;17.20;11.32;;;;;;;16.03;100.00;101058.19;6219072;23;20047;-78
2023/10/13 01:36:41;;;;;;;12.75;10.80;;;;;;;16.02;100.00;101062.81;6192071;23;20104;-78
2023/10/13 01:39:10;;;;;;;14.05;10.57;;;;;;;16.02;100.00;101059.38;6192384;23;20017;-78
2023/10/13 01:41:39;;;;;;;14.98;11.45;;;;;;;16.02;100.00;101054.75;6191483;23;20355;-78
2023/10/13 01:44:05;;;;;;;16.90;12.15;;;;;;;16.02;100.00;101054.03;6192281;23;20051;-79
2023/10/13 01:46:32;;;;;;;18.15;10.77;;;;;;;16.02;100.00;101049.38;6218977;23;20096;-79
2023/10/13 01:48:59;;;;;;;16.42;11.40;;;;;;;16.03;100.00;101050.13;6219516;23;20013;-78
2023/10/13 01:51:27;;;;;;;16.77;12.07;;;;;;;16.02;100.00;101044.03;6192053;23;20047;-79
2023/10/13 01:53:56;;;;;;;15.18;11.40;;;;;;;16.02;100.00;101035.22;6192322;23;20075;-77
2023/10/13 01:56:24;;;;;;;15.13;11.00;;;;;;;16.01;100.00;101037.16;6190940;23;20064;-79
2023/10/13 01:58:51;;;;;;;19.05;11.45;;;;;;;16.00;100.00;101035.69;6191792;23;20477;-78
2023/10/13 02:01:26;;;;;;;11.95;10.60;;;;;;;16.01;100.00;101037.16;6192472;23;20025;-78
2023/10/13 02:04:03;;;;;;;15.38;10.57;;;;;;;16.01;100.00;101031.06;6192799;23;20443;-79
2023/10/13 02:06:36;;;;;;;16.65;9.77;;;;;;;15.99;100.00;101033.50;6192403;23;20017;-79
2023/10/13 02:09:13;;;;;;;16.67;10.30;;;;;;;15.99;100.00;101028.84;6219431;23;20092;-78
2023/10/13 02:11:43;;;;;;;12.95;9.93;;;;;;;15.99;100.00;101028.13;6156629;23;20036;-79
2023/10/13 02:14:16;;;;;;;14.63;10.00;;;;;;;15.98;100.00;101019.34;6132448;23;20017;-79
2023/10/13 02:16:46;;;;;;;12.55;9.57;;;;;;;15.97;100.00;101015.19;6157125;23;20026;-79
2023/10/13 02:19:15;;;;;;;13.77;9.32;;;;;;;15.97;100.00;101015.19;6159005;23;20018;-79
2023/10/13 02:21:44;;;;;;;14.80;9.52;;;;;;;15.97;100.00;101009.81;6159017;23;20018;-79
2023/10/13 02:24:18;;;;;;;10.93;9.18;;;;;;;15.98;100.00;101010.53;6156999;23;20460;-79
2023/10/13 02:26:45;;;;;;;11.43;9.55;;;;;;;15.96;100.00;101012.97;6156955;23;20026;-79
2023/10/13 02:29:17;;;;;;;13.02;9.10;;;;;;;15.97;100.00;101007.13;6157358;23;20085;-79
2023/10/13 02:31:54;;;;;;;10.65;9.40;;;;;;;15.96;100.00;101000.28;6159401;23;20423;-79
2023/10/13 02:34:24;;;;;;;15.38;9.07;;;;;;;15.96;100.00;100996.84;6158304;23;20025;-79
2023/10/13 02:36:52;;;;;;;10.63;8.55;;;;;;;15.95;100.00;100990.00;6157137;23;20025;-79
2023/10/13 02:39:26;;;;;;;12.68;9.10;;;;;;;15.96;100.00;100986.13;6158743;23;20018;-80
2023/10/13 02:41:55;;;;;;;9.10;8.15;;;;;;;15.94;100.00;100978.53;6159453;23;20037;-79
2023/10/13 02:44:33;;;;;;;12.27;8.43;;;;;;;15.94;100.00;100983.91;6158430;23;20014;-79
2023/10/13 02:46:59;;;;;;;9.95;7.68;;;;;;;15.94;100.00;100975.09;6159177;23;20022;-79
2023/10/13 02:49:27;;;;;;;10.20;8.50;;;;;;;15.93;100.00;100960.19;6158429;23;20014;-79
2023/10/13 02:51:59;;;;;;;10.23;8.20;;;;;;;15.93;100.00;100957.53;6157408;23;20029;-79
2023/10/13 02:54:31;;;;;;;10.85;8.65;;;;;;;15.92;100.00;100958.72;6157310;23;20771;-78
2023/10/13 02:56:59;;;;;;;;;;;;;;;15.92;100.00;100959.47;6157807;23;20072;-79
2023/10/13 02:59:46;;;;;;;11.32;7.53;;;;;;;15.91;100.00;100949.94;6156365;23;19971;-78
2023/10/13 03:02:17;;;;;;;11.82;8.35;;;;;;;15.90;100.00;100945.78;6158629;23;20025;-79
2023/10/13 03:04:49;;;;;;;13.98;8.52;;;;;;;15.90;100.00;100931.63;6159133;23;20014;-78
2023/10/13 03:07:22;;;;;;;15.07;8.00;;;;;;;15.89;100.00;100927.44;6158572;23;20428;-78
2023/10/13 03:09:51;;;;;;;12.23;8.02;;;;;;;15.90;100.00;100915.50;6177003;23;20461;-78
2023/10/13 03:12:19;;;;;;;16.60;8.05;;;;;;;15.88;100.00;100899.13;6219945;23;20024;-79
2023/10/13 03:14:48;;;;;;;13.80;8.20;;;;;;;15.88;100.00;100891.06;6168258;23;20013;-79
2023/10/13 03:17:17;;;;;;;14.45;8.10;;;;;;;15.86;100.00;100888.88;6192612;23;20029;-78
2023/10/13 03:19:49;;;;;;;12.15;7.68;;;;;;;15.85;100.00;100882.03;6220167;23;20017;-79
2023/10/13 03:22:18;;;;;;;14.70;8.07;;;;;;;15.84;100.00;100888.59;6219877;23;20037;-79
2023/10/13 03:24:46;;;;;;;12.15;7.80;;;;;;;15.84;100.00;100885.19;6193009;23;20019;-79
2023/10/13 03:27:24;;;;;;;13.75;7.85;;;;;;;15.85;100.00;100886.66;6219727;23;20096;-79
2023/10/13 03:30:00;;;;;;;12.98;7.63;;;;;;;15.84;100.00;100893.97;6193541;23;20017;-79
2023/10/13 03:32:30;;;;;;;11.60;7.20;;;;;;;15.84;100.00;100885.19;6192692;23;20104;-80
2023/10/13 03:37:39;;;;;;;9.90;7.22;;;;;;;15.84;100.00;100872.50;6191287;23;20396;-80
2023/10/13 03:43:05;;;;;;;14.68;7.32;;;;;;;15.82;100.00;100876.84;6219935;23;20084;-79
2023/10/13 03:45:39;;;;;;;9.05;6.07;;;;;;;15.81;100.00;100840.50;6193028;23;20017;-79
2023/10/13 03:48:11;;;;;;;10.90;6.53;;;;;;;15.80;100.00;100841.69;6219875;23;20530;-79
2023/10/13 03:50:57;;;;;;;7.57;6.45;;;;;;;15.79;100.00;100840.97;6219439;23;20100;-79
2023/10/13 03:53:25;;;;;;;13.45;6.47;;;;;;;15.78;100.00;100836.78;6218667;23;20017;-79
2023/10/13 03:56:07;;;;;;;7.18;5.95;;;;;;;15.79;100.00;100816.81;6219854;23;20465;-82
2023/10/13 03:58:36;;;;;;;11.90;6.50;;;;;;;15.77;100.00;100803.13;6219236;23;20025;-80
2023/10/13 04:01:03;;;;;;;10.07;6.55;;;;;;;15.77;100.00;100811.16;6219906;23;20044;-79
2023/10/13 04:03:36;;;;;;;6.75;6.00;;;;;;;15.78;100.00;100803.84;6219118;23;20010;-79
2023/10/13 04:06:06;;;;;;;8.45;6.60;;;;;;;15.77;100.00;100791.66;6219654;23;20359;-78
2023/10/13 04:16:50;;;;;;;12.00;5.72;;;;;;;15.77;100.00;100759.44;6219855;23;20485;-81
2023/10/13 04:19:23;;;;;;;8.38;6.07;;;;;;;15.76;100.00;100760.66;6219255;23;20029;-80
2023/10/13 04:21:59;;;;;;;6.72;6.13;;;;;;;15.77;100.00;100754.06;6218455;23;20017;-79
2023/10/13 04:24:50;;;;;;;12.07;6.05;;;;;;;15.76;100.00;100747.22;6219077;23;20478;-80
2023/10/13 04:32:29;;;;;;;7.07;6.35;;;;;;;15.76;100.00;100745.28;6192159;23;20410;-79
2023/10/13 04:38:01;;;;;;;9.73;6.00;;;;;;;15.75;100.00;100718.91;6192104;23;20033;-80
2023/10/13 04:40:35;;;;;;;6.75;5.60;;;;;;;15.76;100.00;100723.06;6218876;23;20048;-80
2023/10/13 04:43:32;;;;;;;11.68;5.70;;;;;;;15.76;100.00;100715.03;6193536;23;20013;-81
2023/10/13 04:45:54;;;;;;;9.02;5.45;;;;;;;15.76;100.00;100715.03;6219584;23;20037;-81
2023/10/13 04:51:21;;;;;;;6.63;5.13;;;;;;;15.77;100.00;100705.75;6192496;23;20028;-80
2023/10/13 04:54:00;;;;;;;8.38;5.60;;;;;;;15.79;100.00;100701.38;6218344;23;20021;-80
2023/10/13 04:59:35;;;;;;;5.80;4.63;;;;;;;15.80;100.00;100699.44;6219015;23;20104;-79
2023/10/13 05:52:08;;;;;;;6.03;4.80;;;;;;;16.18;100.00;100631.13;6192142;23;20510;-79
2023/10/13 06:30:59;;;;;;;15.00;5.20;;;;;;;16.13;100.00;100592.28;6126953;23;20026;-78
2023/10/13 06:33:28;;;;;;;15.77;5.30;;;;;;;16.14;100.00;100593.00;6132337;23;20061;-76
2023/10/13 06:35:56;;;;;;;17.63;5.43;;;;;;;16.15;100.00;100587.16;6156447;23;20018;-77
2023/10/13 06:38:24;;;;;;;9.82;5.32;;;;;;;16.15;100.00;100600.56;6155286;23;20061;-77
2023/10/13 06:40:52;;;;;;;11.25;5.25;;;;;;;16.18;100.00;100590.84;6156050;23;20410;-78
2023/10/13 06:43:21;;;;;;;9.98;5.40;;;;;;;16.19;100.00;100589.63;6155831;23;20022;-77
2023/10/13 06:46:01;;;;;;;10.00;5.32;;;;;;;16.21;100.00;100582.53;6106594;23;20021;-77
2023/10/13 06:48:33;;;;;;;9.95;5.32;;;;;;;16.24;100.00;100589.63;6155492;23;20025;-77
2023/10/13 06:51:04;;;;;;;10.70;5.57;;;;;;;16.25;100.00;100585.75;6131578;23;20094;-75
2023/10/13 06:53:37;;;;;;;16.08;5.97;;;;;;;16.29;100.00;100582.81;6188222;23;20017;-76
2023/10/13 06:56:07;;;;;;;14.93;6.22;;;;;;;16.32;100.00;100579.19;6218901;23;20013;-76
2023/10/13 06:58:33;;;;;;;13.40;6.38;;;;;;;16.35;100.00;100572.84;6218128;23;20096;-78
2023/10/13 07:01:01;;;;;;;9.95;6.53;;;;;;;16.37;100.00;100567.72;6191406;23;20021;-78
2023/10/13 07:03:28;;;;;;;11.20;6.60;;;;;;;16.40;100.00;100564.03;6217938;23;20025;-83
2023/10/13 07:05:58;;;;;;;8.90;6.43;;;;;;;16.43;100.00;100567.72;6218763;23;20017;-78
2023/10/13 07:08:25;;;;;;;12.10;7.17;;;;;;;16.48;100.00;100550.88;6191573;23;20021;-79
2023/10/13 07:11:02;;;;;;;8.18;7.25;;;;;;;16.52;100.00;100554.06;6218487;23;20233;-79
2023/10/13 07:13:29;;;;;;;15.20;7.60;;;;;;;16.55;100.00;100555.78;6218272;23;20017;-78
2023/10/13 07:16:05;;;;;;;8.77;7.43;;;;;;;16.58;100.00;100549.44;6191839;23;20017;-79
2023/10/13 07:18:37;;;;;;;12.20;7.63;;;;;;;16.60;100.00;100531.63;6218291;23;20147;-79
2023/10/13 07:21:09;;;;;;;10.02;6.88;;;;;;;16.63;100.00;100525.28;6218598;23;20433;-78
2023/10/13 07:23:39;;;;;;;9.32;7.10;;;;;;;16.65;100.00;100506.75;6218349;23;20020;-78
2023/10/13 07:26:08;;;;;;;7.70;6.90;;;;;;;16.69;100.00;100501.13;6218852;23;20017;-78
2023/10/13 07:28:36;;;;;;;10.35;7.63;;;;;;;16.70;100.00;100507.97;6191032;23;20435;-78
2023/10/13 07:33:33;;;;;;;13.73;6.45;;;;;;;16.76;100.00;100499.94;6217781;23;20019;-78
2023/10/13 07:36:17;;;;;;;9.85;6.55;;;;;;;16.78;100.00;100498.22;6218607;23;20069;-78
2023/10/13 07:38:48;;;;;;;7.75;5.57;;;;;;;16.84;100.00;100511.63;6218298;23;20044;-78
2023/10/13 07:41:32;;;;;;;12.02;5.88;;;;;;;16.86;100.00;100506.50;6218570;23;20089;-78
2023/10/13 07:43:59;;;;;;;10.20;5.82;;;;;;;16.88;100.00;100509.44;6217983;23;20013;-77
2023/10/13 07:46:31;;;;;;;11.70;5.65;;;;;;;16.90;100.00;100505.03;6217709;23;20525;-77
2023/10/13 07:49:09;;;;;;;13.93;5.40;;;;;;;16.92;100.00;100496.50;6218433;23;20100;-78
2023/10/13 07:51:44;;;;;;;13.77;6.38;;;;;;;16.93;100.00;100519.47;6217907;23;20429;-78
2023/10/13 07:54:21;;;;;;;19.00;6.00;;;;;;;16.94;100.00;100483.28;6218326;23;20020;-78
2023/10/13 07:56:48;;;;;;;14.95;5.80;;;;;;;16.94;100.00;100502.13;6219140;23;20420;-79
2023/10/13 07:59:15;;;;;;;8.98;5.25;;;;;;;16.95;100.00;100500.91;6218814;23;20100;-76
2023/10/13 08:01:42;;;;;;;13.48;5.70;;;;;;;16.97;100.00;100485.75;6219490;23;20017;-77
2023/10/13 08:04:14;;;;;;;14.25;6.00;;;;;;;17.00;100.00;100498.22;6219105;23;20064;-76
2023/10/13 08:06:43;;;;;;;8.25;5.50;;;;;;;17.06;100.00;100492.09;6219718;23;20064;-78
2023/10/13 08:09:30;;;;;;;10.60;4.70;;;;;;;17.10;100.00;100495.28;6192023;23;20017;-77
2023/10/13 08:11:56;;;;;;;13.07;5.13;;;;;;;17.16;100.00;100493.31;6218137;23;20028;-77
2023/10/13 08:14:23;;;;;;;7.05;5.03;;;;;;;17.20;100.00;100491.81;6216577;23;20888;-77
2023/10/13 08:16:54;;;;;;;13.13;5.65;;;;;;;17.24;100.00;100496.97;6218673;23;20017;-77
2023/10/13 08:19:31;;;;;;;11.93;5.45;;;;;;;17.26;100.00;100495.25;6216588;23;20337;-77
2023/10/13 08:37:33;;;;;;;11.88;4.97;;;;;;;17.50;100.00;100475.91;6217290;23;20017;-77
2023/10/13 08:43:08;;;;;;;16.40;4.80;;;;;;;17.55;100.00;100463.66;6190641;23;20505;-77
2023/10/13 08:48:12;;;;;;;15.65;4.93;;;;;;;17.60;100.00;100466.31;6217238;23;20064;-77
2023/10/13 08:50:52;;;;;;;13.57;5.65;;;;;;;17.63;100.00;100454.56;6217319;23;20395;-77
2023/10/13 08:53:27;;;;;;;9.77;5.05;;;;;;;17.65;100.00;100441.34;6217038;23;20474;-77
2023/10/13 08:56:15;;;;;;;13.40;5.40;;;;;;;17.68;100.00;100442.31;6217498;23;20023;-77
2023/10/13 09:09:35;;;;;;;10.65;5.03;;;;;;;17.75;100.00;100454.53;6167832;23;1141514;-78
2023/10/13 09:12:10;;;;;;;14.60;5.65;;;;;;;17.77;100.00;100441.31;6218890;23;20012;-77
2023/10/13 09:14:42;;;;;;;17.75;4.90;;;;;;;17.76;100.00;100447.94;6219210;23;20089;-81
2023/10/13 09:19:56;;;;;;;13.77;5.25;;;;;;;17.74;100.00;100421.50;6219693;23;20027;-78
2023/10/13 09:22:27;;;;;;;11.30;5.53;;;;;;;17.74;100.00;100429.59;6218637;23;20083;-78
2023/10/13 09:24:58;;;;;;;;;;;;;;;17.76;100.00;100418.31;6220077;23;20017;-79
2023/10/13 09:27:26;;;;;;;18.35;5.28;;;;;;;17.76;100.00;100439.84;6192044;23;19951;-79
2023/10/13 09:30:01;;;;;;;18.30;5.40;;;;;;;17.78;100.00;100445.47;6219560;23;20025;-78
2023/10/13 09:32:30;;;;;;;12.38;5.30;;;;;;;17.81;100.00;100428.34;6219350;23;20428;-78
2023/10/13 09:35:01;;;;;;;10.32;5.43;;;;;;;17.85;100.00;100420.72;6192791;23;20028;-78
2023/10/13 09:37:28;;;;;;;20.23;6.13;;;;;;;17.89;100.00;100423.91;6218041;23;20017;-82
2023/10/13 09:40:05;;;;;;;12.60;4.97;;;;;;;17.91;100.00;100408.72;6218833;23;20446;-78
2023/10/13 09:42:34;;;;;;;19.88;5.60;;;;;;;17.92;100.00;100412.88;6218268;23;20347;-78
2023/10/13 09:45:04;;;;;;;17.67;5.90;;;;;;;17.92;100.00;100399.41;6219357;23;20025;-78
2023/10/13 09:47:36;;;;;;;13.18;5.25;;;;;;;17.95;100.00;100401.09;6218618;23;20013;-79
2023/10/13 09:50:13;;;;;;;14.93;5.53;;;;;;;17.98;100.00;100404.75;6219621;23;20048;-78
2023/10/13 09:52:45;;;;;;;11.90;5.22;;;;;;;18.02;100.00;100399.81;6218765;23;20043;-78
2023/10/13 09:55:26;;;;;;;14.20;5.85;;;;;;;18.02;100.00;100394.44;6218449;23;20056;-77
2023/10/13 09:58:04;;;;;;;23.30;5.82;;;;;;;18.03;100.00;100390.50;6192772;23;20367;-75
2023/10/13 10:00:46;;;;;;;18.52;5.65;;;;;;;18.02;100.00;100380.97;6191944;23;20027;-78
2023/10/13 10:06:03;;;;;;;13.60;5.85;;;;;;;18.03;100.00;100376.31;6219451;23;20522;-76
2023/10/13 10:08:33;;;;;;;;;;;;;;;18.10;100.00;100381.16;6218652;23;20450;-75
2023/10/13 10:11:04;;;;;;;17.25;5.25;;;;;;;18.11;100.00;100375.28;6191574;23;19919;-79
2023/10/13 10:14:04;;;;;;;12.27;5.40;;;;;;;18.18;100.00;100371.31;6191805;23;20013;-78
2023/10/13 10:16:52;;;;;;;22.88;6.13;;;;;;;18.20;100.00;100364.19;6191973;23;20044;-77
2023/10/13 10:19:19;;;;;;;20.85;6.03;;;;;;;18.22;100.00;100363.69;6218101;23;20562;-78
2023/10/13 10:21:48;;;;;;;16.70;5.72;;;;;;;18.27;100.00;100369.06;6192612;23;20009;-76
2023/10/13 10:24:24;;;;;;;19.55;6.65;;;;;;;18.30;100.00;100361.94;6218036;23;20354;-77
2023/10/13 10:26:52;;;;;;;24.65;6.13;;;;;;;18.35;100.00;100360.44;6218853;23;20021;-77
2023/10/13 10:29:18;;;;;;;17.25;5.57;;;;;;;18.41;100.00;100355.69;6218603;23;20077;-78
2023/10/13 10:31:45;;;;;;;17.48;5.38;;;;;;;18.48;100.00;100349.78;6218863;23;20020;-77
2023/10/13 10:34:14;;;;;;;12.68;5.45;;;;;;;18.51;100.00;100341.41;6218651;23;20013;-78
2023/10/13 10:36:43;;;;;;;9.65;5.30;;;;;;;18.54;100.00;100336.97;6218593;23;20021;-75
2023/10/13 10:39:11;;;;;;;11.65;5.45;;;;;;;18.60;100.00;100343.81;6191309;23;20071;-79
2023/10/13 10:41:54;;;;;;;19.55;6.20;;;;;;;18.66;100.00;100341.06;6216612;23;20024;-82
2023/10/13 10:44:33;;;;;;;11.70;5.00;;;;;;;18.75;100.00;100332.66;6217857;23;20020;-77
2023/10/13 10:47:36;;;;;;;13.98;5.68;;;;;;;18.81;100.00;100329.88;6192303;23;20076;-77
2023/10/13 10:50:19;;;;;;;15.95;5.75;;;;;;;18.86;100.00;100329.09;6218999;23;20013;-78
2023/10/13 10:52:46;;;;;;;14.48;5.88;;;;;;;18.92;100.00;100322.41;6218289;23;20100;-77
2023/10/13 10:55:14;;;;;;;18.05;5.93;;;;;;;18.99;100.00;100329.19;6218157;23;20032;-78
2023/10/13 10:57:43;;;;;;;9.65;5.03;;;;;;;19.05;100.00;100321.06;6218401;23;20024;-78
2023/10/13 11:00:20;;;;;;;13.43;5.97;;;;;;;19.09;100.00;100308.00;6218049;23;20056;-78
2023/10/13 11:02:56;;;;;;;20.85;5.70;;;;;;;19.15;100.00;100304.00;6219098;23;20347;-77
2023/10/13 11:05:32;;;;;;;17.98;6.03;;;;;;;19.21;99.08;100310.03;6218085;23;20009;-78
2023/10/13 11:07:59;;;;;;;18.38;5.90;;;;;;;19.27;99.14;100302.63;6191656;23;20123;-78
2023/10/13 11:10:31;;;;;;;12.50;5.55;;;;;;;19.31;98.95;100299.63;6190978;23;20076;-79
2023/10/13 11:13:14;;;;;;;12.23;5.38;;;;;;;19.32;97.56;100298.38;6191944;23;20017;-78
2023/10/13 11:15:47;;;;;;;15.75;6.53;;;;;;;19.33;97.69;100307.94;6218141;23;20045;-78
2023/10/13 11:18:23;;;;;;;25.73;7.03;;;;;;;19.32;97.05;100301.09;6191697;23;20550;-79
2023/10/13 11:20:56;;;;;;;19.10;5.90;;;;;;;19.35;97.61;100286.56;6191972;23;20017;-80
2023/10/13 11:24:11;;;;;;;13.18;6.25;;;;;;;19.40;96.90;100276.94;6216716;23;41653;-79
2023/10/13 11:26:54;;;;;;;16.80;6.13;;;;;;;19.36;96.53;100269.13;6156400;23;20022;-79
2023/10/13 11:29:31;;;;;;;18.90;5.72;;;;;;;19.32;94.89;100260.59;6217454;23;20028;-79
2023/10/13 11:31:59;;;;;;;16.77;5.65;;;;;;;19.33;94.25;100260.09;6192478;23;20451;-79
2023/10/13 11:34:30;;;;;;;13.93;6.20;;;;;;;19.33;95.45;100265.50;6192941;23;20392;-79
2023/10/13 11:36:58;;;;;;;18.02;5.75;;;;;;;19.35;93.26;100251.50;6218970;23;20441;-79
2023/10/13 11:39:32;;;;;;;16.90;5.65;;;;;;;19.42;93.79;100256.31;6218862;23;20894;-79
2023/10/13 11:41:59;;;;;;;23.38;6.25;;;;;;;19.45;92.51;100257.97;6219692;23;20014;-79
2023/10/13 11:44:33;;;;;;;19.42;6.40;;;;;;;19.51;90.92;100247.88;6192009;23;20048;-79
2023/10/13 11:47:32;;;;;;;12.90;6.15;;;;;;;19.56;90.31;100230.13;6167700;23;20020;-79
2023/10/13 11:49:56;;;;;;;19.75;5.57;;;;;;;19.59;88.54;100234.50;6219548;23;20021;-80
2023/10/13 11:52:26;;;;;;;13.15;6.43;;;;;;;19.60;88.40;100231.25;6218443;23;20013;-79
2023/10/13 11:54:52;;;;;;;23.42;5.45;;;;;;;19.60;87.01;100217.78;6219360;23;20459;-77
2023/10/13 11:57:19;;;;;;;16.05;6.30;;;;;;;19.61;88.92;100232.00;6218406;23;20435;-77
2023/10/13 11:59:53;;;;;;;15.18;6.18;;;;;;;19.61;89.07;100250.91;6192533;23;20084;-78
2023/10/13 12:04:57;;;;;;;19.98;6.80;;;;;;;19.75;86.12;100236.19;6219109;23;20439;-79
2023/10/13 12:07:27;;;;;;;15.68;6.20;;;;;;;19.82;86.10;100249.09;6218919;23;20048;-78
2023/10/13 12:12:28;;;;;;;13.70;6.43;;;;;;;19.83;87.16;100241.72;6218737;23;20092;-79
2023/10/13 12:14:55;;;;;;;13.18;6.50;;;;;;;19.74;86.32;100250.94;6219499;23;20052;-79
2023/10/13 12:17:34;;;;;;;18.58;6.60;;;;;;;19.75;85.53;100254.38;6218694;23;20021;-79
2023/10/13 12:20:09;;;;;;;14.73;6.85;;;;;;;19.75;85.30;100246.28;6218156;23;20053;-79
2023/10/13 12:22:39;;;;;;;30.45;7.10;;;;;;;19.77;84.91;100241.09;6192364;23;20024;-78
2023/10/13 12:25:24;;;;;;;15.80;6.40;;;;;;;19.78;84.96;100245.25;6219244;23;20080;-81
2023/10/13 12:27:57;;;;;;;10.93;6.47;;;;;;;19.82;86.17;100232.91;6219659;23;20463;-75
2023/10/13 12:30:48;;;;;;;16.80;6.75;;;;;;;19.85;84.10;100223.03;6218778;23;20021;-77
2023/10/13 12:33:24;;;;;;;12.30;6.68;;;;;;;19.88;84.19;100230.13;6219124;23;20017;-77
2023/10/13 12:38:39;;;;;;;15.73;7.00;;;;;;;19.91;84.46;100218.28;6192397;23;20017;-78
2023/10/13 12:52:25;;;;;;;17.48;6.15;;;;;;;19.85;84.64;100225.75;6219314;23;20021;-77
2023/10/13 12:54:58;;;;;;;22.55;7.53;;;;;;;19.82;84.52;100227.50;6219477;23;20024;-77
2023/10/13 12:57:26;;;;;;;18.63;6.18;;;;;;;19.81;85.06;100228.75;6218794;23;20017;-78
2023/10/13 12:59:54;;;;;;;20.17;7.13;;;;;;;19.80;85.72;100235.38;6192283;23;20083;-79
2023/10/13 13:02:25;;;;;;;12.70;6.28;;;;;;;19.81;84.87;100242.25;6218359;23;20519;-78
2023/10/13 13:05:22;;;;;;;13.23;6.15;;;;;;;19.78;85.10;100243.28;6218648;23;20414;-79
2023/10/13 13:07:46;;;;;;;23.17;6.50;;;;;;;19.75;85.19;100241.59;6191952;23;20028;-78
2023/10/13 13:10:14;;;;;;;18.08;6.38;;;;;;;19.73;86.23;100232.56;6218339;23;20016;-79
2023/10/13 13:12:43;;;;;;;12.23;6.32;;;;;;;19.69;87.37;100234.81;6218671;23;20024;-79
2023/10/13 13:15:11;;;;;;;18.58;7.40;;;;;;;19.65;88.91;100238.56;6217955;23;20013;-81
2023/10/13 13:17:39;;;;;;;27.00;6.97;;;;;;;19.58;88.40;100244.56;6218321;23;20036;-80
2023/10/13 13:20:26;;;;;;;21.80;6.80;;;;;;;19.56;90.17;100230.88;6218947;23;20080;-80
2023/10/13 13:22:54;;;;;;;16.58;6.82;;;;;;;19.51;89.93;100233.63;6217451;23;20025;-81
2023/10/13 13:25:30;;;;;;;13.95;7.20;;;;;;;19.46;92.34;100232.44;6218576;23;20017;-80
2023/10/13 13:27:58;;;;;;;20.17;7.05;;;;;;;19.40;92.27;100236.47;6219269;23;20020;-81
2023/10/13 13:30:31;;;;;;;20.67;6.88;;;;;;;19.33;93.56;100238.50;6218407;23;20017;-82
2023/10/13 13:33:03;;;;;;;13.98;7.00;;;;;;;19.26;93.12;100220.19;6218567;23;20021;-83
2023/10/13 13:35:34;;;;;;;16.60;6.95;;;;;;;19.22;93.45;100213.63;6218825;23;20048;-82
2023/10/13 13:38:09;;;;;;;18.88;7.05;;;;;;;19.15;94.33;100201.50;6192507;23;20107;-83
2023/10/13 13:40:38;;;;;;;12.77;7.07;;;;;;;19.13;95.70;100201.28;6191746;23;20028;-83
2023/10/13 13:43:06;;;;;;;23.95;7.47;;;;;;;19.07;97.06;100202.59;6218881;23;20416;-82
2023/10/13 13:45:34;;;;;;;15.38;6.93;;;;;;;19.01;97.01;100205.34;6191954;23;20072;-83
2023/10/13 13:48:07;;;;;;;16.60;7.60;;;;;;;18.94;98.40;100205.94;6191658;23;20084;-82
2023/10/13 13:50:41;;;;;;;21.73;7.15;;;;;;;18.91;99.43;100202.28;6219205;23;20092;-82
2023/10/13 13:53:11;;;;;;;18.13;6.95;;;;;;;18.85;99.03;100198.19;6190171;23;20021;-83
2023/10/13 13:55:39;;;;;;;14.05;7.72;;;;;;;18.82;99.48;100205.34;6216668;23;20426;-82
2023/10/13 13:58:08;;;;;;;14.63;6.93;;;;;;;18.79;99.63;100213.72;6165213;23;20074;-81
2023/10/13 14:00:46;;;;;;;20.60;7.63;;;;;;;18.77;100.00;100219.63;6190019;23;20470;-79
2023/10/13 14:03:16;;;;;;;15.25;7.47;;;;;;;18.77;100.00;100214.25;6189198;23;20116;-81
2023/10/13 14:05:43;;;;;;;22.42;7.50;;;;;;;18.76;99.77;100217.44;6217157;23;20025;-81
2023/10/13 14:08:14;;;;;;;18.20;6.55;;;;;;;18.73;100.00;100221.88;6189963;23;20017;-82
2023/10/13 14:16:16;;;;;;;21.15;7.38;;;;;;;18.51;100.00;100216.69;6216439;23;20100;-79
2023/10/13 14:18:47;;;;;;;11.63;6.90;;;;;;;18.46;100.00;100236.34;6216936;23;20023;-81
2023/10/13 14:21:18;;;;;;;16.15;7.72;;;;;;;18.42;100.00;100236.63;6217487;23;20093;-85
2023/10/13 14:23:45;;;;;;;17.30;7.40;;;;;;;18.37;100.00;100237.44;6166573;23;20416;-82
2023/10/13 14:26:13;;;;;;;16.58;7.30;;;;;;;18.29;100.00;100239.97;6217477;23;20035;-81
2023/10/13 14:28:51;;;;;;;20.23;7.00;;;;;;;18.22;100.00;100243.19;6217063;23;20051;-86
2023/10/13 14:31:18;;;;;;;26.13;7.25;;;;;;;18.21;100.00;100241.75;6189767;23;20112;-79
2023/10/13 14:33:46;;;;;;;15.15;7.30;;;;;;;18.16;100.00;100236.41;6190384;23;20017;-78
2023/10/13 14:36:14;;;;;;;16.35;6.47;;;;;;;18.13;100.00;100261.66;6190538;23;20475;-80
2023/10/13 14:38:44;;;;;;;21.95;7.47;;;;;;;18.11;100.00;100269.50;6216805;23;20015;-78